Aeroporto :
LOGIN :

Iscrizione | Disclaimer

   EN    FR    IT 

 










Sommario :    VFR   VFR Marginale   IFR   IFR Intensivo   IFR Molto Intensivo
Visibilità : 
Base nubi : 
>= 8 km
>= 3000ft
5 / 8 km
1000 / 3000 ft
1500m / 5 km
500 / 1000 ft
800 / 1500m
200 / 500 ft
< 800m
< 200 ft
Simboli :   Temporali  Nebbia  Neve Forte  Precipitazioni Forti  Vento > 20 kt
SIGMETs :   Varie  Temporali  Ghiacco  Turbolenza  Onda orograficha  Ceneri Vulcaniche






- Altitudine del aeroporto : 290 ft
- Codice IATA : LAI


LFRO - Lannion

ULTIMO METAR :
  • 181730Z AUTO 02005KT 340V060 9999 FEW044 OVC066 15/12 Q1014

METARs OBSOLETI :
  • 181700Z AUTO 02005KT 340V070 9999 FEW007 BKN041 OVC062 15/13 Q1014
  • 181630Z AUTO 02005KT 330V080 9999 BKN006 BKN039 OVC058 15/13 Q1014
  • 181600Z AUTO 01004KT 330V050 9000 FEW009 OVC035 14/13 Q1015
  • 181530Z AUTO 01007KT 330V030 5000 -RA BR FEW005 OVC029 14/13 Q1015
  • 181500Z AUTO 01006KT 340V040 4200 -DZ BR BKN004 BKN008 OVC020 14/13 Q1015
  • 181430Z AUTO 02009KT 5000 -DZ BR BKN005 OVC017 14/13 Q1014
  • 181400Z AUTO 02009KT 9999 BKN007 OVC021 14/12 Q1014
  • 181330Z AUTO 03008KT 350V090 9999 BKN006 BKN019 OVC026 15/13 Q1014
  • 181300Z AUTO 02009KT 340V060 9999 BKN006 OVC018 15/13 Q1014

Previsioni scadute.



MetMap, La meteo Aeronautica in un colpo d'occhio ! - Copyright ORBIFLY Dicembre 2007 - Disclaimer

ORBIFLY MET'MAP TEAM :

Programmazione e sviluppo : Alexandra Zaïnal
Concezione : Baudouin d'Aumeries
Supporto tecnico e logistico : Manuel Goepfert
Aiuto : Marc-Olivier Méhu
Aiuto per la traduzione : Arnaldo La Scala




FONTI E CREDITI :

   NOAA